Dobbins Air Reserve Base Airport
KMGE : now visible

Aeroporto :











RITROVATECI SU...

 
LOGIN :

Iscrizione | Disclaimer

   EN    FR    IT 

 









Sommario :    VFR   VFR Marginale   IFR   IFR Intensivo   IFR Molto Intensivo
Visibilità : 
Base nubi : 
>= 8 km
>= 3000ft
5 / 8 km
1000 / 3000 ft
1500m / 5 km
500 / 1000 ft
800 / 1500m
200 / 500 ft
< 800m
< 200 ft
Simboli :   Temporali  Nebbia  Neve Forte  Precipitazioni Forti  Vento > 20 kt






- Altitudine del aeroporto : 1068 ft


KMGE - Dobbins Air Reserve Base

ULTIMO METAR :
  • 022056Z 31005KT 10SM CLR 11/M07 A3029 RMK AO2A SLP264 T01111072 56009 $

METARs OBSOLETI :
  • 021956Z 31007KT 10SM FEW250 12/M07 A3029 RMK AO2A SLP263 T01171072 $
  • 021856Z 30009KT 10SM FEW250 11/M07 A3030 RMK AO2A SLP268 T01061072 $

TAF TAF KMGE
Valido dal 02 a 14 ore il 03 a 20 ore UTC


021400Z 0214/0320 32010G15KT 9999 SCT250 QNH3030INS
BECMG 0223/0224 VRB05KT 9999 FEW200 QNH3025INS
BECMG 0312/0313 09006KT 9999 SCT120 BKN200 QNH3026INS TX10/0220Z TNM01/0311Z
FIR KZTL / America del Nord



MetMap, La meteo Aeronautica in un colpo d'occhio ! - Copyright ORBIFLY Dicembre 2007 - Disclaimer

ORBIFLY MET'MAP TEAM :

Programmazione e sviluppo : Alexandra Zaïnal
Concezione : Baudouin d'Aumeries
Aiuto per la programmazione : Marc-Olivier Méhu
Supporto tecnico e logistico : Manuel Goepfert
Aiuto per la traduzione : Arnaldo La Scala

Contatto : metmap@orbifly.com




FONTI E CREDITI :

   NOAA       Earth
Advisory